createdAt,value
2023-05-11T00:03:25.847Z,6.77
2023-05-11T00:07:23.542Z,6.70
2023-05-11T00:11:25.587Z,6.65
2023-05-11T00:15:23.646Z,6.61
2023-05-11T00:19:21.508Z,6.58
2023-05-11T00:23:19.546Z,6.54
2023-05-11T00:27:17.565Z,6.50
2023-05-11T00:31:15.571Z,6.45
2023-05-11T00:35:13.514Z,6.41
2023-05-11T00:39:11.542Z,6.35
2023-05-11T00:43:09.482Z,6.28
2023-05-11T00:47:07.719Z,6.20
2023-05-11T00:51:05.502Z,6.12
2023-05-11T00:55:03.493Z,6.05
2023-05-11T00:59:01.512Z,5.97
2023-05-11T01:02:59.535Z,5.91
2023-05-11T01:07:21.436Z,5.81
2023-05-11T01:11:34.626Z,5.75
2023-05-11T01:15:54.475Z,5.67
2023-05-11T01:20:03.557Z,5.58
2023-05-11T01:24:38.452Z,5.50
2023-05-11T01:28:45.452Z,5.37
2023-05-11T01:32:41.403Z,5.25
2023-05-11T01:36:43.427Z,5.14
2023-05-11T01:40:46.441Z,5.05
2023-05-11T01:44:47.435Z,4.98
2023-05-11T01:48:50.382Z,4.92
2023-05-11T01:52:50.425Z,4.87
2023-05-11T01:56:50.403Z,4.81
2023-05-11T02:00:49.412Z,4.73
2023-05-11T02:04:48.383Z,4.68
2023-05-11T02:08:47.411Z,4.64
2023-05-11T02:12:46.374Z,4.62
2023-05-11T02:16:46.452Z,4.59
2023-05-11T02:20:44.409Z,4.54
2023-05-11T02:24:45.452Z,4.44
2023-05-11T02:28:45.347Z,4.41
2023-05-11T02:32:45.367Z,4.38
2023-05-11T02:36:45.480Z,4.35
2023-05-11T02:41:01.389Z,4.33
2023-05-11T02:45:12.349Z,4.33
2023-05-11T02:49:13.335Z,4.36
2023-05-11T02:53:14.332Z,4.39
2023-05-11T02:57:12.333Z,4.40
2023-05-11T03:01:10.413Z,4.42
2023-05-11T03:05:08.312Z,4.46
2023-05-11T03:09:07.239Z,4.51
2023-05-11T03:13:11.324Z,4.57
2023-05-11T03:17:10.290Z,4.62
2023-05-11T03:21:08.325Z,4.64
2023-05-11T03:25:07.292Z,4.76
2023-05-11T03:29:08.433Z,5.08
2023-05-11T03:33:07.386Z,6.31
2023-05-11T03:37:05.295Z,7.55
2023-05-11T03:41:21.591Z,8.57
2023-05-11T03:45:22.285Z,9.63
2023-05-11T03:49:21.309Z,10.60
2023-05-11T03:53:19.406Z,11.41
2023-05-11T03:57:17.293Z,11.93
2023-05-11T04:01:15.278Z,12.28
2023-05-11T04:05:13.227Z,12.46
2023-05-11T04:09:11.246Z,12.74
2023-05-11T04:13:09.217Z,13.20
2023-05-11T04:17:32.438Z,13.74
2023-05-11T04:21:30.234Z,14.17
2023-05-11T04:25:28.250Z,14.48
2023-05-11T04:29:26.244Z,14.91
2023-05-11T04:33:24.236Z,15.06
2023-05-11T04:37:22.198Z,15.32
2023-05-11T04:41:22.281Z,15.45
2023-05-11T04:45:22.170Z,15.70
2023-05-11T04:49:20.209Z,15.73
2023-05-11T04:53:18.193Z,15.89
2023-05-11T04:57:16.219Z,15.77
2023-05-11T05:01:14.312Z,15.41
2023-05-11T05:05:12.234Z,15.20
2023-05-11T05:09:10.199Z,15.09
2023-05-11T05:13:08.329Z,14.79
2023-05-11T05:17:08.227Z,14.43
2023-05-11T05:21:06.285Z,14.01
2023-05-11T05:25:04.172Z,13.70
2023-05-11T05:29:02.178Z,13.51
2023-05-11T05:33:00.242Z,13.17
2023-05-11T05:36:59.143Z,12.97
2023-05-11T05:40:57.136Z,12.92
2023-05-11T05:44:59.153Z,12.86
2023-05-11T05:48:57.139Z,12.87
2023-05-11T05:52:55.159Z,12.86
2023-05-11T05:56:54.146Z,12.89
2023-05-11T06:00:31.745Z,12.71
2023-05-11T06:03:59.201Z,12.70
2023-05-11T06:07:23.216Z,12.77
2023-05-11T06:10:47.394Z,12.92
2023-05-11T06:14:12.282Z,12.98
2023-05-11T06:17:36.952Z,13.00
2023-05-11T06:21:01.347Z,13.15
2023-05-11T06:24:26.491Z,13.21
2023-05-11T06:27:50.629Z,13.37
2023-05-11T06:31:15.811Z,13.59
2023-05-11T06:34:40.514Z,13.73
2023-05-11T06:38:05.873Z,13.93
2023-05-11T06:41:30.348Z,14.16
2023-05-11T06:44:54.486Z,14.25
2023-05-11T06:48:20.156Z,14.40
2023-05-11T06:51:44.398Z,14.56
2023-05-11T06:55:08.870Z,14.70
2023-05-11T06:58:33.057Z,14.80
2023-05-11T07:01:57.102Z,14.90
2023-05-11T07:05:21.071Z,14.93
2023-05-11T07:08:44.923Z,14.82
2023-05-11T07:12:08.891Z,14.79
2023-05-11T07:15:32.864Z,14.96
2023-05-11T07:18:56.687Z,15.11
2023-05-11T07:22:20.668Z,15.16
2023-05-11T07:25:44.888Z,15.24
2023-05-11T07:29:08.814Z,15.42
2023-05-11T07:32:53.547Z,15.54
2023-05-11T07:36:17.524Z,15.64
2023-05-11T07:39:41.392Z,15.51
2023-05-11T07:43:05.220Z,15.46
2023-05-11T07:46:29.652Z,15.54
2023-05-11T07:49:53.595Z,15.58
2023-05-11T07:53:17.821Z,15.67
2023-05-11T07:56:42.108Z,15.71
2023-05-11T08:00:07.371Z,15.82
2023-05-11T08:03:35.844Z,15.94
2023-05-11T08:06:59.849Z,16.00
2023-05-11T08:10:23.835Z,16.07
2023-05-11T08:16:48.781Z,16.22
2023-05-11T08:20:13.399Z,16.17
2023-05-11T08:23:37.281Z,16.22
2023-05-11T08:27:01.423Z,16.28
2023-05-11T08:30:25.324Z,16.38
2023-05-11T08:33:49.407Z,16.42
2023-05-11T08:37:13.470Z,16.44
2023-05-11T08:40:37.838Z,16.53
2023-05-11T08:44:02.148Z,16.54
2023-05-11T08:47:26.477Z,16.58
2023-05-11T08:50:50.801Z,16.57
2023-05-11T08:54:14.785Z,16.61
2023-05-11T08:57:40.146Z,16.67
2023-05-11T09:01:06.583Z,16.74
2023-05-11T09:04:31.480Z,16.84
2023-05-11T09:08:02.496Z,16.95
2023-05-11T09:11:26.570Z,17.06
2023-05-11T09:14:50.836Z,17.13
2023-05-11T09:18:14.894Z,17.21
2023-05-11T09:21:39.666Z,17.22
2023-05-11T09:25:04.160Z,17.21
2023-05-11T09:31:59.419Z,17.25
2023-05-11T09:35:27.455Z,17.32
2023-05-11T09:42:24.886Z,17.37
2023-05-11T09:45:51.006Z,17.38
2023-05-11T09:49:15.291Z,17.44
2023-05-11T09:52:51.070Z,17.40
2023-05-11T09:56:15.903Z,17.36
2023-05-11T09:59:41.868Z,17.39
2023-05-11T10:03:07.013Z,17.41
2023-05-11T10:06:54.160Z,17.50
2023-05-11T10:10:18.688Z,17.53
2023-05-11T10:13:45.249Z,17.65
2023-05-11T10:17:11.389Z,17.79
2023-05-11T10:20:35.586Z,17.88
2023-05-11T10:23:59.784Z,17.89
2023-05-11T10:27:23.949Z,17.82
2023-05-11T10:30:48.550Z,17.87
2023-05-11T10:34:13.134Z,17.94
2023-05-11T10:37:37.237Z,17.91
2023-05-11T10:41:15.103Z,17.72
2023-05-11T10:44:56.109Z,17.61
2023-05-11T10:48:38.278Z,17.55
2023-05-11T10:52:21.570Z,17.58
2023-05-11T10:56:03.561Z,17.55
2023-05-11T10:59:51.524Z,17.76
2023-05-11T11:03:16.363Z,18.04
2023-05-11T11:06:42.955Z,18.22
2023-05-11T11:10:09.084Z,18.44
2023-05-11T11:13:59.383Z,18.63
2023-05-11T11:17:25.890Z,18.72
2023-05-11T11:20:52.879Z,18.67
2023-05-11T11:24:39.474Z,18.58
2023-05-11T11:28:03.302Z,18.46
2023-05-11T11:31:32.491Z,18.46
2023-05-11T11:34:56.787Z,18.56
2023-05-11T11:38:21.667Z,18.67
2023-05-11T11:41:45.746Z,18.99
2023-05-11T11:45:30.428Z,19.20
2023-05-11T11:49:08.505Z,19.29
2023-05-11T11:52:32.479Z,19.27
2023-05-11T11:55:56.763Z,19.48
2023-05-11T11:59:20.789Z,19.68
2023-05-11T12:02:46.797Z,19.79
2023-05-11T12:06:12.782Z,19.85
2023-05-11T12:09:37.705Z,19.85
2023-05-11T12:13:02.390Z,19.65
2023-05-11T12:16:26.338Z,19.47
2023-05-11T12:19:50.384Z,19.69
2023-05-11T12:23:15.275Z,19.83
2023-05-11T12:26:39.117Z,19.86
2023-05-11T12:30:24.788Z,20.15
2023-05-11T12:33:50.770Z,20.41
2023-05-11T12:37:14.728Z,20.56
2023-05-11T12:40:38.959Z,20.62
2023-05-11T12:44:03.139Z,20.69
2023-05-11T12:47:27.309Z,20.79
2023-05-11T12:50:51.365Z,20.85
2023-05-11T12:54:32.167Z,21.01
2023-05-11T12:58:09.131Z,21.25
2023-05-11T13:02:17.467Z,21.53
2023-05-11T13:05:42.817Z,21.13
2023-05-11T13:09:06.860Z,21.27
2023-05-11T13:12:32.435Z,21.28
2023-05-11T13:15:56.494Z,21.00
2023-05-11T13:19:29.679Z,20.93
2023-05-11T13:23:05.212Z,21.06
2023-05-11T13:26:30.913Z,21.55
2023-05-11T13:29:54.626Z,21.91
2023-05-11T13:33:38.440Z,22.15
2023-05-11T13:37:36.520Z,22.24
2023-05-11T13:41:34.433Z,22.25
2023-05-11T13:45:32.560Z,22.10
2023-05-11T13:49:30.430Z,22.38
2023-05-11T13:53:28.513Z,22.55
2023-05-11T13:57:26.462Z,22.54
2023-05-11T14:01:24.453Z,22.05
2023-05-11T14:05:22.655Z,22.23
2023-05-11T14:09:20.454Z,22.45
2023-05-11T14:13:18.453Z,22.65
2023-05-11T14:17:18.497Z,22.70
2023-05-11T14:21:16.412Z,22.92
2023-05-11T14:25:14.539Z,22.93
2023-05-11T14:29:12.397Z,22.71
2023-05-11T14:32:50.923Z,22.84
2023-05-11T14:36:15.268Z,22.53
2023-05-11T14:39:39.271Z,22.15
2023-05-11T14:43:03.185Z,22.25
2023-05-11T14:46:27.198Z,22.65
2023-05-11T14:49:51.475Z,22.92
2023-05-11T14:53:15.495Z,22.78
2023-05-11T14:56:39.512Z,22.82
2023-05-11T15:00:03.630Z,22.91
2023-05-11T15:03:27.893Z,22.93
2023-05-11T15:06:51.874Z,22.94
2023-05-11T15:10:15.945Z,22.99
2023-05-11T15:13:53.758Z,23.15
2023-05-11T15:17:17.674Z,23.01
2023-05-11T15:20:42.594Z,22.69
2023-05-11T15:24:08.113Z,22.34
2023-05-11T15:27:34.082Z,22.41
2023-05-11T15:30:57.871Z,22.57
2023-05-11T15:34:21.960Z,22.60
2023-05-11T15:37:45.800Z,22.24
2023-05-11T15:41:09.828Z,21.91
2023-05-11T15:44:34.731Z,21.57
2023-05-11T15:47:58.767Z,21.52
2023-05-11T15:51:43.390Z,21.36
2023-05-11T15:55:41.413Z,20.98
2023-05-11T15:59:39.370Z,20.46
2023-05-11T16:03:37.472Z,20.08
2023-05-11T16:07:35.338Z,19.94
2023-05-11T16:11:33.348Z,19.65
2023-05-11T16:15:31.346Z,19.34
2023-05-11T16:19:29.314Z,19.12
2023-05-11T16:23:27.339Z,19.06
2023-05-11T16:27:25.347Z,18.89
2023-05-11T16:31:23.347Z,18.63
2023-05-11T16:35:21.437Z,18.50
2023-05-11T16:39:19.321Z,18.28
2023-05-11T16:43:17.423Z,18.10
2023-05-11T16:47:15.296Z,18.01
2023-05-11T16:51:13.296Z,17.85
2023-05-11T16:55:11.363Z,17.68
2023-05-11T16:59:09.316Z,17.49
2023-05-11T17:03:07.330Z,17.34
2023-05-11T17:07:05.332Z,17.24
2023-05-11T17:11:03.249Z,17.10
2023-05-11T17:15:01.302Z,16.99
2023-05-11T17:18:59.403Z,16.89
2023-05-11T17:22:57.274Z,16.78
2023-05-11T17:26:55.248Z,16.64
2023-05-11T17:30:53.326Z,16.51
2023-05-11T17:34:51.316Z,16.38
2023-05-11T17:38:49.314Z,16.26
2023-05-11T17:42:47.321Z,16.13
2023-05-11T17:46:45.336Z,15.98
2023-05-11T17:50:43.255Z,15.84
2023-05-11T17:54:41.255Z,15.68
2023-05-11T17:58:39.212Z,15.54
2023-05-11T18:02:37.447Z,15.39
2023-05-11T18:06:35.225Z,15.25
2023-05-11T18:10:33.238Z,15.12
2023-05-11T18:14:31.213Z,14.98
2023-05-11T18:18:29.285Z,14.87
2023-05-11T18:22:27.211Z,14.75
2023-05-11T18:26:26.281Z,14.61
2023-05-11T18:30:24.259Z,14.46
2023-05-11T18:34:22.189Z,14.31
2023-05-11T18:38:20.179Z,14.17
2023-05-11T18:42:19.195Z,14.01
2023-05-11T18:46:22.268Z,13.86
2023-05-11T18:50:20.477Z,13.73
2023-05-11T18:54:18.259Z,13.62
2023-05-11T18:58:16.218Z,13.50
2023-05-11T19:02:14.178Z,13.38
2023-05-11T19:06:14.184Z,13.30
2023-05-11T19:10:12.173Z,13.20
2023-05-11T19:14:11.248Z,13.10
2023-05-11T19:18:09.207Z,13.01
2023-05-11T19:22:09.097Z,12.94
2023-05-11T19:26:07.209Z,12.85
2023-05-11T19:30:05.209Z,12.77
2023-05-11T19:34:03.151Z,12.69
2023-05-11T19:38:01.130Z,12.60
2023-05-11T19:41:59.152Z,12.54
2023-05-11T19:45:57.186Z,12.47
2023-05-11T19:49:55.162Z,12.42
2023-05-11T19:53:53.264Z,12.35
2023-05-11T19:57:51.060Z,12.28
2023-05-11T20:01:49.143Z,12.26
2023-05-11T20:05:47.127Z,12.20
2023-05-11T20:09:45.150Z,12.13
2023-05-11T20:13:43.087Z,12.04
2023-05-11T20:17:41.104Z,11.95
2023-05-11T20:21:39.065Z,11.87
2023-05-11T20:25:37.057Z,11.79
2023-05-11T20:29:35.062Z,11.71
2023-05-11T20:37:34.124Z,11.57
2023-05-11T20:41:32.089Z,11.50
2023-05-11T20:45:30.372Z,11.43
2023-05-11T20:49:38.435Z,11.36
2023-05-11T20:53:37.016Z,11.29
2023-05-11T20:57:37.115Z,11.23
2023-05-11T21:01:35.242Z,11.16
2023-05-11T21:05:33.053Z,11.08
2023-05-11T21:09:32.055Z,11.00
2023-05-11T21:13:30.046Z,10.94
2023-05-11T21:17:28.061Z,10.87
2023-05-11T21:21:26.061Z,10.79
2023-05-11T21:25:24.035Z,10.72
2023-05-11T21:29:22.033Z,10.65
2023-05-11T21:33:19.992Z,10.57
2023-05-11T21:37:21.036Z,10.51
2023-05-11T21:41:18.991Z,10.44
2023-05-11T21:45:19.999Z,10.38
2023-05-11T21:49:18.967Z,10.33
2023-05-11T21:53:17.029Z,10.26
2023-05-11T21:57:14.970Z,10.21
2023-05-11T22:01:13.170Z,10.17
2023-05-11T22:05:10.929Z,10.11
2023-05-11T22:09:08.982Z,10.06
2023-05-11T22:13:06.983Z,10.00
2023-05-11T22:17:04.952Z,9.91
2023-05-11T22:21:02.934Z,9.84
2023-05-11T22:25:00.994Z,9.78
2023-05-11T22:28:58.958Z,9.72
2023-05-11T22:32:56.952Z,9.67
2023-05-11T22:36:54.927Z,9.62
2023-05-11T22:40:52.928Z,9.56
2023-05-11T22:45:15.927Z,9.48
2023-05-11T22:49:14.904Z,9.42
2023-05-11T22:53:12.904Z,9.36
2023-05-11T22:57:10.903Z,9.29
2023-05-11T23:01:09.969Z,9.24
2023-05-11T23:05:07.965Z,9.19
2023-05-11T23:09:05.882Z,9.12
2023-05-11T23:13:03.869Z,9.07
2023-05-11T23:17:01.837Z,9.02
2023-05-11T23:20:59.882Z,8.98
2023-05-11T23:24:57.906Z,8.94
2023-05-11T23:28:55.956Z,8.91
2023-05-11T23:32:53.848Z,8.87
2023-05-11T23:36:51.880Z,8.83
2023-05-11T23:40:49.823Z,8.79
2023-05-11T23:44:47.884Z,8.74
2023-05-11T23:48:45.848Z,8.69
2023-05-11T23:52:43.836Z,8.64
2023-05-11T23:56:41.836Z,8.61
